Dom Joao — CSZA2 — position and weather

sailwx.info

Track history (hours):
 
Tides and Currents Weather Stations Pressure Air Temp Water Temp Dewpoint Dewpoint Depression Visibility Wind Speed Wind Dir Waves Ship Positions

Dom Joao

Last reported at 2017-Dec-30 12:54 UTC. Time now 2018-Jan-21 15:00 UTC.
Position N 38°42' W 009°11'.
Warning: this ship's position is 22 days out of date.

Length 14 m.

Type: Passenger vessel. MMSI: 263673906.

Date/timePositionNaut miles runAvg speedWind from/ knotsBaromVisibWave heightAir tempDewpointWater temp
2017-Dec-30 12:54N 38°42' W 009°11'2 3.3
2017-Dec-30 12:20N 38°42' W 009°08'3 8.7
2017-Dec-30 11:59N 38°41' W 009°12'  
2017-Dec-23 12:53N 38°42' W 009°11'1 4.0
2017-Dec-23 12:30N 38°42' W 009°12'3 4.6
2017-Dec-23 11:49N 38°42' W 009°09'2 0.1
2017-Dec-22 17:34N 38°42' W 009°11'1 7.6
2017-Dec-22 17:30N 38°42' W 009°11'3 4.2
2017-Dec-22 16:47N 38°41' W 009°07'3 0.9
2017-Dec-22 13:31N 38°39' W 009°06'0 5.6
2017-Dec-22 13:30N 38°39' W 009°06'4 7.7
2017-Dec-22 12:57N 38°41' W 009°11'1 1.2
2017-Dec-22 12:02N 38°42' W 009°12'0 0.1
2017-Dec-22 11:59N 38°42' W 009°12'  
Track history (hours):
 
Tides and Currents Weather Stations Pressure Air Temp Water Temp Dewpoint Dewpoint Depression Visibility Wind Speed Wind Dir Waves Ship Positions

Dom Joao

Last reported at 2017-Dec-30 12:54 UTC. Time now 2018-Jan-21 15:00 UTC.
Position N 38°42' W 009°11'.
Warning: this ship's position is 22 days out of date.

Length 14 m.

Type: Passenger vessel. MMSI: 263673906.

Date/timePositionNaut miles runAvg speedWind from/ knotsBaromVisibWave heightAir tempDewpointWater temp
2017-Dec-30 12:54N 38°42' W 009°11'2 3.3
2017-Dec-30 12:20N 38°42' W 009°08'3 8.7
2017-Dec-30 11:59N 38°41' W 009°12'  
2017-Dec-23 12:53N 38°42' W 009°11'1 4.0
2017-Dec-23 12:30N 38°42' W 009°12'3 4.6
2017-Dec-23 11:49N 38°42' W 009°09'2 0.1
2017-Dec-22 17:34N 38°42' W 009°11'1 7.6
2017-Dec-22 17:30N 38°42' W 009°11'3 4.2
2017-Dec-22 16:47N 38°41' W 009°07'3 0.9
2017-Dec-22 13:31N 38°39' W 009°06'0 5.6
2017-Dec-22 13:30N 38°39' W 009°06'4 7.7
2017-Dec-22 12:57N 38°41' W 009°11'1 1.2
2017-Dec-22 12:02N 38°42' W 009°12'0 0.1
2017-Dec-22 11:59N 38°42' W 009°12'  

Dump ship's entire track history